createdAt,value
2018-05-09T00:01:41.985Z,99.90
2018-05-09T00:04:09.657Z,99.90
2018-05-09T00:06:37.320Z,99.90
2018-05-09T00:09:04.985Z,99.90
2018-05-09T00:11:32.849Z,99.90
2018-05-09T00:14:00.510Z,99.90
2018-05-09T00:16:28.283Z,99.90
2018-05-09T00:18:56.972Z,99.90
2018-05-09T00:21:25.542Z,99.90
2018-05-09T00:23:53.138Z,99.90
2018-05-09T00:26:20.860Z,99.90
2018-05-09T00:28:50.368Z,99.90
2018-05-09T00:31:18.132Z,99.90
2018-05-09T00:33:45.897Z,99.90
2018-05-09T00:36:13.689Z,99.90
2018-05-09T00:38:41.283Z,99.90
2018-05-09T00:41:08.793Z,99.90
2018-05-09T00:43:37.465Z,99.90
2018-05-09T00:46:05.532Z,99.90
2018-05-09T00:48:33.292Z,99.90
2018-05-09T00:51:00.901Z,99.90
2018-05-09T00:53:28.829Z,99.90
2018-05-09T00:55:57.200Z,99.90
2018-05-09T00:58:24.857Z,99.90
2018-05-09T01:00:52.628Z,99.90
2018-05-09T01:03:20.204Z,99.90
2018-05-09T01:05:48.581Z,99.90
2018-05-09T01:08:16.424Z,99.90
2018-05-09T01:10:44.097Z,99.90
2018-05-09T01:13:11.669Z,99.90
2018-05-09T01:15:40.341Z,99.90
2018-05-09T01:18:08.007Z,99.90
2018-05-09T01:20:36.389Z,99.90
2018-05-09T01:23:04.761Z,99.90
2018-05-09T01:25:33.143Z,99.90
2018-05-09T01:28:01.700Z,99.90
2018-05-09T01:30:29.372Z,99.90
2018-05-09T01:32:56.948Z,99.90
2018-05-09T01:35:25.522Z,99.90
2018-05-09T01:37:53.217Z,99.90
2018-05-09T01:40:20.940Z,99.90
2018-05-09T01:42:49.835Z,99.90
2018-05-09T01:45:17.312Z,99.90
2018-05-09T01:47:45.772Z,99.90
2018-05-09T01:50:14.808Z,99.90
2018-05-09T01:52:42.932Z,99.90
2018-05-09T01:55:11.962Z,99.90
2018-05-09T01:57:39.598Z,99.90
2018-05-09T02:00:08.714Z,99.90
2018-05-09T02:02:36.652Z,99.90
2018-05-09T02:05:04.248Z,99.90
2018-05-09T02:07:32.389Z,99.90
2018-05-09T02:10:00.048Z,99.90
2018-05-09T02:12:27.689Z,99.90
2018-05-09T02:14:55.572Z,99.90
2018-05-09T02:17:23.336Z,99.90
2018-05-09T02:19:50.896Z,99.90
2018-05-09T02:22:18.452Z,99.90
2018-05-09T02:24:46.225Z,99.90
2018-05-09T02:27:13.881Z,99.90
2018-05-09T02:29:41.648Z,99.90
2018-05-09T02:32:09.220Z,99.90
2018-05-09T02:34:37.484Z,99.90
2018-05-09T02:37:05.348Z,99.90
2018-05-09T02:39:33.009Z,99.90
2018-05-09T02:42:00.485Z,99.90
2018-05-09T02:44:29.148Z,99.90
2018-05-09T02:46:56.917Z,99.90
2018-05-09T02:49:25.148Z,99.90
2018-05-09T02:51:52.753Z,99.90
2018-05-09T02:54:20.516Z,99.90
2018-05-09T02:56:48.101Z,99.90
2018-05-09T02:59:16.489Z,99.90
2018-05-09T03:01:44.081Z,99.90
2018-05-09T03:04:11.976Z,99.90
2018-05-09T03:06:39.585Z,99.90
2018-05-09T03:09:07.164Z,99.90
2018-05-09T03:11:35.164Z,99.90
2018-05-09T03:14:02.674Z,99.90
2018-05-09T03:16:30.279Z,99.90
2018-05-09T03:18:57.853Z,99.90
2018-05-09T03:21:26.732Z,99.90
2018-05-09T03:23:54.396Z,99.90
2018-05-09T03:26:25.724Z,99.90
2018-05-09T03:28:53.413Z,99.90
2018-05-09T03:31:21.783Z,99.90
2018-05-09T03:33:49.445Z,99.90
2018-05-09T03:36:17.820Z,99.90
2018-05-09T03:38:45.380Z,99.90
2018-05-09T03:41:12.848Z,99.90
2018-05-09T03:43:41.417Z,99.90
2018-05-09T03:46:09.125Z,99.90
2018-05-09T03:48:36.778Z,99.90
2018-05-09T03:51:04.399Z,99.90
2018-05-09T03:53:33.115Z,99.90
2018-05-09T03:56:01.573Z,99.90
2018-05-09T03:58:29.132Z,99.90
2018-05-09T04:00:56.864Z,99.90
2018-05-09T04:03:36.332Z,99.90
2018-05-09T04:06:15.982Z,99.90
2018-05-09T04:08:55.616Z,99.90
2018-05-09T04:11:23.311Z,99.90
2018-05-09T04:13:51.760Z,99.90
2018-05-09T04:16:19.529Z,99.90
2018-05-09T04:18:47.388Z,99.90
2018-05-09T04:21:15.257Z,99.90
2018-05-09T04:23:42.756Z,99.90
2018-05-09T04:26:10.313Z,99.90
2018-05-09T04:28:38.032Z,99.90
2018-05-09T04:31:05.702Z,99.90
2018-05-09T04:33:34.189Z,99.90
2018-05-09T04:36:03.368Z,99.90
2018-05-09T04:38:30.932Z,99.90
2018-05-09T04:41:00.132Z,99.90
2018-05-09T04:43:28.105Z,99.90
2018-05-09T04:45:56.478Z,99.90
2018-05-09T04:48:24.032Z,99.90
2018-05-09T04:50:51.620Z,99.90
2018-05-09T04:53:20.177Z,99.90
2018-05-09T04:55:47.936Z,99.90
2018-05-09T04:58:15.800Z,99.90
2018-05-09T05:00:43.389Z,99.90
2018-05-09T05:03:11.723Z,99.90
2018-05-09T05:05:39.246Z,99.90
2018-05-09T05:08:07.269Z,99.90
2018-05-09T05:10:34.845Z,99.90
2018-05-09T05:13:03.080Z,99.90
2018-05-09T05:15:30.771Z,99.90
2018-05-09T05:17:58.772Z,99.90
2018-05-09T05:20:26.528Z,99.90
2018-05-09T05:22:54.574Z,99.90
2018-05-09T05:25:22.232Z,99.90
2018-05-09T05:27:49.788Z,99.90
2018-05-09T05:30:17.460Z,99.90
2018-05-09T05:32:45.271Z,99.90
2018-05-09T05:35:13.601Z,99.90
2018-05-09T05:37:41.192Z,99.90
2018-05-09T05:40:08.660Z,99.90
2018-05-09T05:42:36.377Z,99.90
2018-05-09T05:45:04.228Z,99.90
2018-05-09T05:47:32.724Z,99.90
2018-05-09T05:50:00.276Z,99.90
2018-05-09T05:52:29.245Z,99.90
2018-05-09T05:54:57.344Z,99.90
2018-05-09T05:57:25.014Z,99.90
2018-05-09T05:59:53.384Z,99.90
2018-05-09T06:02:22.585Z,99.90
2018-05-09T06:04:50.118Z,99.90
2018-05-09T06:07:17.584Z,99.90
2018-05-09T06:09:45.052Z,99.90
2018-05-09T06:12:12.638Z,99.90
2018-05-09T06:14:40.874Z,99.90
2018-05-09T06:17:08.433Z,99.90
2018-05-09T06:19:36.724Z,99.90
2018-05-09T06:22:04.209Z,99.90
2018-05-09T06:24:32.456Z,99.90
2018-05-09T06:27:00.094Z,99.90
2018-05-09T06:29:27.571Z,99.90
2018-05-09T06:31:55.089Z,99.90
2018-05-09T06:34:22.556Z,99.90
2018-05-09T06:36:50.023Z,99.90
2018-05-09T06:39:17.557Z,99.90
2018-05-09T06:41:45.146Z,99.90
2018-05-09T06:44:12.829Z,99.90
2018-05-09T06:46:40.389Z,99.90
2018-05-09T06:49:07.857Z,99.90
2018-05-09T06:51:36.320Z,99.90
2018-05-09T06:54:03.818Z,99.90
2018-05-09T06:56:31.342Z,99.90
2018-05-09T06:58:59.305Z,99.90
2018-05-09T07:01:26.777Z,99.90
2018-05-09T07:03:55.044Z,99.90
2018-05-09T07:06:23.632Z,99.90
2018-05-09T07:08:51.133Z,99.90
2018-05-09T07:11:18.598Z,99.90
2018-05-09T07:13:46.070Z,99.50
2018-05-09T07:16:14.178Z,98.90
2018-05-09T07:18:42.140Z,97.40
2018-05-09T07:21:10.388Z,97.50
2018-05-09T07:23:37.968Z,97.70
2018-05-09T07:26:05.450Z,95.10
2018-05-09T07:28:32.912Z,95.90
2018-05-09T07:31:00.537Z,95.60
2018-05-09T07:33:28.176Z,95.60
2018-05-09T07:35:55.680Z,96.00
2018-05-09T07:38:23.925Z,95.90
2018-05-09T07:40:51.766Z,95.80
2018-05-09T07:43:19.233Z,95.20
2018-05-09T07:45:46.917Z,94.30
2018-05-09T07:48:14.397Z,94.50
2018-05-09T07:50:42.960Z,94.00
2018-05-09T07:53:10.428Z,93.90
2018-05-09T07:55:38.729Z,93.50
2018-05-09T07:58:06.473Z,93.40
2018-05-09T08:00:34.767Z,92.70
2018-05-09T08:03:03.030Z,93.70
2018-05-09T08:05:31.308Z,92.90
2018-05-09T08:07:59.579Z,92.70
2018-05-09T08:10:27.815Z,91.20
2018-05-09T08:12:55.467Z,91.20
2018-05-09T08:15:22.847Z,90.30
2018-05-09T08:17:50.499Z,90.90
2018-05-09T08:20:18.897Z,86.80
2018-05-09T08:22:46.373Z,86.80
2018-05-09T08:25:14.749Z,87.10
2018-05-09T08:27:42.216Z,87.10
2018-05-09T08:30:09.688Z,85.70
2018-05-09T08:32:37.367Z,83.20
2018-05-09T08:35:04.833Z,83.30
2018-05-09T08:37:32.325Z,79.10
2018-05-09T08:40:01.221Z,77.90
2018-05-09T08:42:29.953Z,79.70
2018-05-09T08:44:57.505Z,79.70
2018-05-09T08:47:25.116Z,74.70
2018-05-09T08:49:52.775Z,74.90
2018-05-09T08:52:20.277Z,73.20
2018-05-09T08:54:47.745Z,72.10
2018-05-09T08:57:15.258Z,72.50
2018-05-09T08:59:43.868Z,69.10
2018-05-09T09:02:11.351Z,69.10
2018-05-09T09:04:38.902Z,69.50
2018-05-09T09:07:06.515Z,68.90
2018-05-09T09:09:34.073Z,67.70
2018-05-09T09:12:01.529Z,69.00
2018-05-09T09:14:29.093Z,69.80
2018-05-09T09:16:57.329Z,74.50
2018-05-09T09:19:25.073Z,74.20
2018-05-09T09:21:52.791Z,75.00
2018-05-09T09:24:20.253Z,78.90
2018-05-09T09:26:48.757Z,74.30
2018-05-09T09:29:16.261Z,73.70
2018-05-09T09:31:43.711Z,74.70
2018-05-09T09:34:11.264Z,73.00
2018-05-09T09:36:38.764Z,73.20
2018-05-09T09:39:07.046Z,69.90
2018-05-09T09:41:36.535Z,72.30
2018-05-09T09:44:04.709Z,72.10
2018-05-09T09:46:32.268Z,73.30
2018-05-09T09:48:59.740Z,75.30
2018-05-09T09:51:28.100Z,74.00
2018-05-09T09:53:55.564Z,74.80
2018-05-09T09:56:23.794Z,74.20
2018-05-09T09:58:51.591Z,74.20
2018-05-09T10:01:19.169Z,71.50
2018-05-09T10:03:47.437Z,69.10
2018-05-09T10:06:15.049Z,69.00
2018-05-09T10:08:42.561Z,67.40
2018-05-09T10:11:10.876Z,68.20
2018-05-09T10:13:38.343Z,68.40
2018-05-09T10:16:05.814Z,65.40
2018-05-09T10:18:33.448Z,65.20
2018-05-09T10:21:01.540Z,62.50
2018-05-09T10:23:29.848Z,66.80
2018-05-09T10:25:57.422Z,67.00
2018-05-09T10:28:25.890Z,60.40
2018-05-09T10:30:53.480Z,60.20
2018-05-09T10:33:21.013Z,58.90
2018-05-09T10:35:48.552Z,61.10
2018-05-09T10:38:16.030Z,62.60
2018-05-09T10:40:44.309Z,66.30
2018-05-09T10:43:12.781Z,66.30
2018-05-09T10:45:40.280Z,66.20
2018-05-09T10:48:07.816Z,63.80
2018-05-09T10:50:36.081Z,63.60
2018-05-09T10:53:04.453Z,62.90
2018-05-09T10:55:31.981Z,62.70
2018-05-09T10:57:59.447Z,59.20
2018-05-09T11:00:26.972Z,56.70
2018-05-09T11:02:54.432Z,58.20
2018-05-09T11:05:21.937Z,59.40
2018-05-09T11:07:49.417Z,53.60
2018-05-09T11:10:17.677Z,52.40
2018-05-09T11:12:46.457Z,52.50
2018-05-09T11:15:13.966Z,52.60
2018-05-09T11:17:41.448Z,53.30
2018-05-09T11:20:09.309Z,52.20
2018-05-09T11:22:36.796Z,50.00
2018-05-09T11:25:04.354Z,52.20
2018-05-09T11:27:32.014Z,55.50
2018-05-09T11:29:59.572Z,56.40
2018-05-09T11:32:27.141Z,56.00
2018-05-09T11:34:55.456Z,55.80
2018-05-09T11:37:22.964Z,55.70
2018-05-09T11:39:50.430Z,50.90
2018-05-09T11:42:18.188Z,51.80
2018-05-09T11:44:45.747Z,51.90
2018-05-09T11:47:13.355Z,51.20
2018-05-09T11:49:40.877Z,53.70
2018-05-09T11:52:09.151Z,51.20
2018-05-09T11:54:37.524Z,53.00
2018-05-09T11:57:05.764Z,55.00
2018-05-09T11:59:33.307Z,55.10
2018-05-09T12:02:00.820Z,50.80
2018-05-09T12:04:29.088Z,49.70
2018-05-09T12:06:56.852Z,49.30
2018-05-09T12:09:24.414Z,48.20
2018-05-09T12:11:51.971Z,49.30
2018-05-09T12:14:19.728Z,47.30
2018-05-09T12:16:47.193Z,49.20
2018-05-09T12:19:15.017Z,48.40
2018-05-09T12:21:42.525Z,48.40
2018-05-09T12:24:10.802Z,48.60
2018-05-09T12:26:39.134Z,47.00
2018-05-09T12:29:06.629Z,47.00
2018-05-09T12:31:34.865Z,46.90
2018-05-09T12:34:03.381Z,47.10
2018-05-09T12:36:30.869Z,47.10
2018-05-09T12:38:59.145Z,47.30
2018-05-09T12:41:26.604Z,47.20
2018-05-09T12:43:54.138Z,46.80
2018-05-09T12:46:22.429Z,48.00
2018-05-09T12:48:51.106Z,47.50
2018-05-09T12:51:18.553Z,47.50
2018-05-09T12:53:46.043Z,47.40
2018-05-09T12:56:13.774Z,50.60
2018-05-09T12:58:42.011Z,51.80
2018-05-09T13:01:09.476Z,51.70
2018-05-09T13:03:37.368Z,51.90
2018-05-09T13:06:04.928Z,49.80
2018-05-09T13:08:32.396Z,49.50
2018-05-09T13:11:00.903Z,47.90
2018-05-09T13:13:28.426Z,47.90
2018-05-09T13:15:56.701Z,47.80
2018-05-09T13:18:25.334Z,48.00
2018-05-09T13:20:52.810Z,47.90
2018-05-09T13:23:21.051Z,47.20
2018-05-09T13:25:48.833Z,47.30
2018-05-09T13:28:17.061Z,45.20
2018-05-09T13:30:45.433Z,47.20
2018-05-09T13:33:13.093Z,47.20
2018-05-09T13:35:41.473Z,48.10
2018-05-09T13:38:09.436Z,48.10
2018-05-09T13:40:37.676Z,50.30
2018-05-09T13:43:05.145Z,50.30
2018-05-09T13:45:32.838Z,48.10
2018-05-09T13:48:01.224Z,49.70
2018-05-09T13:50:29.688Z,51.60
2018-05-09T13:52:57.561Z,51.60
2018-05-09T13:55:25.326Z,51.50
2018-05-09T13:57:53.721Z,55.00
2018-05-09T14:00:22.380Z,52.20
2018-05-09T14:02:51.356Z,51.80
2018-05-09T14:05:18.837Z,51.70
2018-05-09T14:07:46.576Z,52.70
2018-05-09T14:10:14.193Z,53.90
2018-05-09T14:12:41.760Z,54.30
2018-05-09T14:15:09.689Z,55.10
2018-05-09T14:17:37.965Z,57.20
2018-05-09T14:20:05.708Z,56.50
2018-05-09T14:22:33.237Z,57.50
2018-05-09T14:25:01.062Z,55.60
2018-05-09T14:27:29.310Z,58.30
2018-05-09T14:29:56.920Z,58.30
2018-05-09T14:32:24.469Z,57.10
2018-05-09T14:34:51.998Z,56.10
2018-05-09T14:37:19.540Z,55.40
2018-05-09T14:39:47.008Z,54.80
2018-05-09T14:42:14.472Z,56.80
2018-05-09T14:44:42.009Z,55.20
2018-05-09T14:47:09.472Z,58.40
2018-05-09T14:49:36.983Z,59.60
2018-05-09T14:52:05.424Z,56.40
2018-05-09T14:54:33.306Z,56.40
2018-05-09T14:57:01.572Z,57.20
2018-05-09T14:59:29.804Z,56.80
2018-05-09T15:01:57.512Z,56.40
2018-05-09T15:04:25.754Z,56.60
2018-05-09T15:06:53.260Z,56.70
2018-05-09T15:09:21.533Z,56.30
2018-05-09T15:11:49.245Z,56.10
2018-05-09T15:14:17.133Z,56.60
2018-05-09T15:16:44.861Z,55.20
2018-05-09T15:19:12.364Z,56.30
2018-05-09T15:21:40.229Z,55.20
2018-05-09T15:24:07.692Z,56.50
2018-05-09T15:26:35.929Z,58.40
2018-05-09T15:29:03.924Z,58.30
2018-05-09T15:31:31.501Z,59.10
2018-05-09T15:33:59.821Z,60.50
2018-05-09T15:36:27.425Z,60.40
2018-05-09T15:38:54.998Z,58.90
2018-05-09T15:41:22.503Z,58.60
2018-05-09T15:43:50.200Z,58.40
2018-05-09T15:46:17.760Z,56.50
2018-05-09T15:48:45.434Z,58.30
2018-05-09T15:51:13.904Z,58.70
2018-05-09T15:53:41.373Z,58.70
2018-05-09T15:56:10.054Z,58.80
2018-05-09T15:58:38.434Z,61.10
2018-05-09T16:01:06.914Z,59.90
2018-05-09T16:03:35.702Z,59.90
2018-05-09T16:06:03.932Z,59.30
2018-05-09T16:08:31.464Z,59.20
2018-05-09T16:10:59.094Z,59.40
2018-05-09T16:13:27.363Z,59.00
2018-05-09T16:15:55.229Z,59.00
2018-05-09T16:18:23.342Z,60.80
2018-05-09T16:20:51.069Z,57.90
2018-05-09T16:23:19.141Z,59.10
2018-05-09T16:25:47.114Z,59.30
2018-05-09T16:28:14.668Z,60.40
2018-05-09T16:30:42.193Z,60.90
2018-05-09T16:33:09.821Z,63.20
2018-05-09T16:35:37.453Z,59.80
2018-05-09T16:38:05.748Z,61.70
2018-05-09T16:40:34.105Z,63.60
2018-05-09T16:43:01.977Z,63.40
2018-05-09T16:45:30.453Z,59.30
2018-05-09T16:47:58.733Z,58.70
2018-05-09T16:50:26.997Z,59.60
2018-05-09T16:52:54.456Z,59.50
2018-05-09T16:55:23.975Z,59.40
2018-05-09T16:57:52.445Z,62.60
2018-05-09T17:00:20.690Z,63.60
2018-05-09T17:02:48.313Z,63.20
2018-05-09T17:05:16.009Z,61.20
2018-05-09T17:07:43.744Z,60.30
2018-05-09T17:10:11.207Z,59.40
2018-05-09T17:12:38.689Z,62.60
2018-05-09T17:15:06.589Z,61.20
2018-05-09T17:17:34.348Z,61.00
2018-05-09T17:20:02.126Z,59.80
2018-05-09T17:22:33.357Z,61.50
2018-05-09T17:25:01.698Z,62.50
2018-05-09T17:27:29.763Z,62.30
2018-05-09T17:29:57.976Z,61.80
2018-05-09T17:32:26.194Z,61.70
2018-05-09T17:34:53.652Z,63.20
2018-05-09T17:37:21.116Z,65.20
2018-05-09T17:39:48.841Z,67.30
2018-05-09T17:42:17.208Z,66.20
2018-05-09T17:44:44.772Z,66.10
2018-05-09T17:47:12.332Z,65.40
2018-05-09T17:49:40.676Z,67.50
2018-05-09T17:52:08.163Z,67.50
2018-05-09T17:54:35.784Z,70.50
2018-05-09T17:57:03.247Z,68.80
2018-05-09T17:59:30.841Z,71.80
2018-05-09T18:01:58.506Z,73.00
2018-05-09T18:04:26.827Z,75.40
2018-05-09T18:06:54.546Z,74.50
2018-05-09T18:09:23.228Z,76.90
2018-05-09T18:11:50.891Z,77.50
2018-05-09T18:14:18.472Z,75.50
2018-05-09T18:16:46.835Z,78.80
2018-05-09T18:19:15.076Z,80.30
2018-05-09T18:21:42.551Z,80.10
2018-05-09T18:24:10.333Z,81.90
2018-05-09T18:26:38.618Z,85.70
2018-05-09T18:29:06.815Z,85.70
2018-05-09T18:31:34.340Z,86.00
2018-05-09T18:34:02.613Z,88.70
2018-05-09T18:36:30.904Z,90.80
2018-05-09T18:38:59.138Z,91.90
2018-05-09T18:41:26.613Z,91.90
2018-05-09T18:43:55.192Z,93.00
2018-05-09T18:46:22.852Z,92.90
2018-05-09T18:48:50.353Z,94.00
2018-05-09T18:51:17.875Z,94.60
2018-05-09T18:53:45.431Z,95.50
2018-05-09T18:56:13.206Z,96.50
2018-05-09T18:58:40.686Z,98.20
2018-05-09T19:01:08.164Z,98.80
2018-05-09T19:03:35.989Z,99.00
2018-05-09T19:06:04.261Z,99.50
2018-05-09T19:08:32.498Z,99.40
2018-05-09T19:11:00.192Z,99.30
2018-05-09T19:13:27.954Z,99.70
2018-05-09T19:15:55.526Z,99.20
2018-05-09T19:18:23.759Z,99.70
2018-05-09T19:20:51.328Z,99.70
2018-05-09T19:23:18.788Z,99.10
2018-05-09T19:25:46.256Z,99.30
2018-05-09T19:28:14.026Z,98.40
2018-05-09T19:30:41.772Z,98.70
2018-05-09T19:33:09.264Z,99.30
2018-05-09T19:35:37.633Z,99.90
2018-05-09T19:38:06.128Z,99.90
2018-05-09T19:40:34.356Z,99.90
2018-05-09T19:43:01.851Z,99.90
2018-05-09T19:45:30.238Z,99.90
2018-05-09T19:47:58.496Z,99.90
2018-05-09T19:50:26.086Z,99.90
2018-05-09T19:52:53.554Z,99.90
2018-05-09T19:55:21.277Z,99.90
2018-05-09T19:57:49.516Z,99.90
2018-05-09T20:00:17.006Z,99.90
2018-05-09T20:02:44.955Z,99.90
2018-05-09T20:05:13.148Z,99.90
2018-05-09T20:07:41.013Z,99.90
2018-05-09T20:10:08.577Z,99.90
2018-05-09T20:12:36.133Z,99.90
2018-05-09T20:15:03.794Z,99.90
2018-05-09T20:17:31.353Z,99.90
2018-05-09T20:19:58.912Z,99.90
2018-05-09T20:22:27.181Z,99.90
2018-05-09T20:24:54.694Z,99.90
2018-05-09T20:27:22.204Z,99.90
2018-05-09T20:29:50.679Z,99.90
2018-05-09T20:32:30.320Z,99.90
2018-05-09T20:34:58.092Z,99.90
2018-05-09T20:37:25.612Z,99.90
2018-05-09T20:39:53.840Z,99.90
2018-05-09T20:42:22.310Z,99.90
2018-05-09T20:44:50.675Z,99.90
2018-05-09T20:47:18.648Z,99.90
2018-05-09T20:49:46.784Z,99.90
2018-05-09T20:52:14.246Z,99.90
2018-05-09T20:54:42.761Z,99.90
2018-05-09T20:57:10.229Z,99.90
2018-05-09T20:59:38.489Z,99.90
2018-05-09T21:02:06.264Z,99.90
2018-05-09T21:04:34.522Z,99.90
2018-05-09T21:07:02.016Z,99.90
2018-05-09T21:09:29.557Z,99.90
2018-05-09T21:12:09.315Z,99.90
2018-05-09T21:14:37.602Z,99.90
2018-05-09T21:17:05.957Z,99.90
2018-05-09T21:19:35.040Z,99.90
2018-05-09T21:22:02.582Z,99.90
2018-05-09T21:24:31.769Z,99.90
2018-05-09T21:26:59.570Z,99.90
2018-05-09T21:29:27.851Z,99.90
2018-05-09T21:31:56.145Z,99.90
2018-05-09T21:34:23.752Z,99.90
2018-05-09T21:36:52.080Z,99.90
2018-05-09T21:39:19.622Z,99.90
2018-05-09T21:41:47.902Z,99.90
2018-05-09T21:44:16.368Z,99.90
2018-05-09T21:46:43.859Z,99.90
2018-05-09T21:49:11.332Z,99.90
2018-05-09T21:51:38.906Z,99.90
2018-05-09T21:54:06.409Z,99.90
2018-05-09T21:56:34.647Z,99.90
2018-05-09T21:59:02.957Z,99.90
2018-05-09T22:01:31.226Z,99.90
2018-05-09T22:03:58.736Z,99.90
2018-05-09T22:06:26.255Z,99.90
2018-05-09T22:08:54.673Z,99.90
2018-05-09T22:11:22.181Z,99.90
2018-05-09T22:13:49.745Z,99.90
2018-05-09T22:16:18.096Z,99.90
2018-05-09T22:18:45.564Z,99.90
2018-05-09T22:21:13.241Z,99.90
2018-05-09T22:23:41.862Z,99.90
2018-05-09T22:26:09.377Z,99.90
2018-05-09T22:28:37.147Z,99.90
2018-05-09T22:31:05.420Z,99.90
2018-05-09T22:33:33.754Z,99.90
2018-05-09T22:36:01.256Z,99.90
2018-05-09T22:38:29.492Z,99.90
2018-05-09T22:40:57.024Z,99.90
2018-05-09T22:43:24.749Z,99.90
2018-05-09T22:45:52.221Z,99.90
2018-05-09T22:48:20.480Z,99.90
2018-05-09T22:50:48.305Z,99.90
2018-05-09T22:53:15.805Z,99.90
2018-05-09T22:55:43.668Z,99.90
2018-05-09T22:58:11.731Z,99.90
2018-05-09T23:00:39.296Z,99.90
2018-05-09T23:03:06.860Z,99.90
2018-05-09T23:05:34.925Z,99.90
2018-05-09T23:08:02.488Z,99.90
2018-05-09T23:10:30.040Z,99.90
2018-05-09T23:12:57.807Z,99.90
2018-05-09T23:15:26.092Z,99.90
2018-05-09T23:17:54.333Z,99.90
2018-05-09T23:20:21.804Z,99.90
2018-05-09T23:22:49.353Z,99.90
2018-05-09T23:25:17.025Z,99.90
2018-05-09T23:27:44.794Z,99.90
2018-05-09T23:30:12.338Z,99.90
2018-05-09T23:32:39.816Z,99.90
2018-05-09T23:35:07.679Z,99.90
2018-05-09T23:37:35.247Z,99.90
2018-05-09T23:40:03.492Z,99.90
2018-05-09T23:42:31.114Z,99.90
2018-05-09T23:44:58.593Z,99.90
2018-05-09T23:47:26.101Z,99.90
2018-05-09T23:49:54.405Z,99.90
2018-05-09T23:52:21.881Z,99.90
2018-05-09T23:54:49.349Z,99.90
2018-05-09T23:57:17.144Z,99.90
2018-05-09T23:59:44.624Z,99.90
